createdAt,value
2022-09-11T00:01:36.579Z,15.20
2022-09-11T00:04:04.201Z,15.21
2022-09-11T00:06:31.198Z,15.34
2022-09-11T00:09:04.505Z,15.27
2022-09-11T00:11:42.048Z,15.25
2022-09-11T00:14:13.771Z,15.22
2022-09-11T00:16:46.007Z,15.19
2022-09-11T00:19:19.908Z,15.17
2022-09-11T00:21:50.404Z,15.06
2022-09-11T00:24:17.730Z,15.15
2022-09-11T00:26:47.388Z,15.19
2022-09-11T00:29:14.371Z,15.21
2022-09-11T00:31:41.785Z,15.16
2022-09-11T00:34:09.518Z,15.16
2022-09-11T00:36:37.572Z,15.10
2022-09-11T00:39:05.012Z,15.15
2022-09-11T00:41:40.003Z,15.21
2022-09-11T00:44:28.314Z,15.21
2022-09-11T00:47:03.173Z,15.19
2022-09-11T00:49:39.679Z,15.16
2022-09-11T00:52:31.039Z,15.16
2022-09-11T00:55:04.949Z,15.20
2022-09-11T00:58:01.777Z,15.17
2022-09-11T01:00:28.696Z,15.15
2022-09-11T01:02:56.792Z,15.18
2022-09-11T01:05:28.036Z,15.19
2022-09-11T01:07:56.551Z,15.22
2022-09-11T01:11:07.295Z,15.23
2022-09-11T01:14:34.513Z,15.04
2022-09-11T01:17:20.398Z,14.81
2022-09-11T01:20:33.282Z,14.87
2022-09-11T01:23:31.564Z,14.94
2022-09-11T01:26:32.603Z,15.01
2022-09-11T01:29:25.422Z,14.96
2022-09-11T01:32:11.705Z,14.96
2022-09-11T01:34:55.534Z,15.01
2022-09-11T01:37:52.031Z,14.96
2022-09-11T01:40:36.699Z,14.90
2022-09-11T01:43:17.208Z,14.98
2022-09-11T01:45:47.201Z,14.76
2022-09-11T01:48:27.025Z,14.80
2022-09-11T01:50:56.971Z,14.63
2022-09-11T01:53:33.432Z,14.45
2022-09-11T01:56:11.011Z,14.65
2022-09-11T01:58:39.536Z,14.80
2022-09-11T02:01:23.139Z,14.50
2022-09-11T02:04:37.704Z,14.65
2022-09-11T02:07:16.904Z,14.53
2022-09-11T02:10:03.153Z,14.85
2022-09-11T02:13:36.992Z,14.83
2022-09-11T02:16:52.747Z,14.71
2022-09-11T02:19:29.863Z,14.73
2022-09-11T02:22:00.243Z,14.80
2022-09-11T02:24:28.411Z,14.46
2022-09-11T02:27:08.419Z,14.48
2022-09-11T02:29:36.982Z,14.58
2022-09-11T02:32:04.613Z,14.55
2022-09-11T02:34:39.904Z,14.35
2022-09-11T02:37:41.940Z,14.37
2022-09-11T02:40:51.591Z,14.25
2022-09-11T02:43:42.947Z,14.30
2022-09-11T02:47:05.515Z,14.22
2022-09-11T02:50:10.385Z,13.97
2022-09-11T02:53:10.553Z,14.18
2022-09-11T02:56:07.982Z,14.15
2022-09-11T02:58:46.313Z,14.25
2022-09-11T03:01:13.431Z,14.33
2022-09-11T03:03:46.439Z,14.34
2022-09-11T03:06:27.290Z,14.47
2022-09-11T03:08:54.356Z,14.21
2022-09-11T03:11:21.460Z,14.43
2022-09-11T03:13:48.457Z,14.28
2022-09-11T03:16:15.450Z,14.61
2022-09-11T03:18:42.416Z,14.38
2022-09-11T03:21:11.371Z,14.52
2022-09-11T03:23:38.616Z,14.30
2022-09-11T03:26:05.631Z,14.32
2022-09-11T03:28:34.090Z,14.42
2022-09-11T03:31:01.130Z,14.45
2022-09-11T03:33:28.144Z,14.68
2022-09-11T03:35:55.207Z,14.52
2022-09-11T03:38:22.198Z,14.47
2022-09-11T03:40:49.273Z,14.25
2022-09-11T03:43:16.704Z,14.41
2022-09-11T03:45:44.772Z,14.32
2022-09-11T03:48:11.916Z,13.96
2022-09-11T03:50:38.864Z,14.05
2022-09-11T03:53:05.857Z,14.04
2022-09-11T03:55:33.194Z,14.03
2022-09-11T03:58:00.399Z,14.24
2022-09-11T04:00:27.741Z,14.30
2022-09-11T04:02:58.106Z,14.54
2022-09-11T04:05:25.333Z,14.55
2022-09-11T04:07:55.089Z,14.63
2022-09-11T04:10:22.372Z,14.72
2022-09-11T04:12:49.341Z,14.75
2022-09-11T04:15:16.407Z,14.72
2022-09-11T04:17:43.505Z,14.45
2022-09-11T04:20:10.929Z,14.58
2022-09-11T04:22:39.327Z,14.59
2022-09-11T04:25:07.611Z,14.45
2022-09-11T04:27:34.675Z,14.53
2022-09-11T04:30:01.589Z,14.55
2022-09-11T04:32:29.214Z,14.66
2022-09-11T04:34:56.326Z,14.55
2022-09-11T04:37:23.305Z,14.58
2022-09-11T04:39:50.490Z,14.57
2022-09-11T04:42:17.560Z,14.49
2022-09-11T04:44:44.484Z,14.32
2022-09-11T04:47:11.434Z,14.47
2022-09-11T04:49:38.393Z,14.49
2022-09-11T04:52:07.223Z,14.50
2022-09-11T04:54:34.217Z,14.51
2022-09-11T04:57:04.294Z,14.46
2022-09-11T04:59:31.263Z,14.45
2022-09-11T05:01:58.258Z,14.51
2022-09-11T05:04:26.538Z,14.48
2022-09-11T05:06:53.698Z,14.44
2022-09-11T05:09:20.823Z,14.73
2022-09-11T05:11:48.297Z,14.44
2022-09-11T05:14:15.327Z,14.58
2022-09-11T05:16:43.713Z,14.76
2022-09-11T05:19:11.035Z,14.74
2022-09-11T05:21:38.264Z,14.68
2022-09-11T05:24:05.312Z,14.68
2022-09-11T05:26:37.131Z,14.66
2022-09-11T05:29:14.968Z,14.63
2022-09-11T05:31:42.594Z,14.56
2022-09-11T05:34:09.804Z,14.70
2022-09-11T05:36:36.942Z,14.58
2022-09-11T05:39:04.467Z,14.66
2022-09-11T05:41:31.441Z,14.75
2022-09-11T05:43:59.175Z,14.76
2022-09-11T05:46:26.325Z,14.86
2022-09-11T05:48:53.645Z,14.85
2022-09-11T05:51:22.307Z,14.63
2022-09-11T05:53:54.420Z,14.70
2022-09-11T05:56:26.145Z,14.90
2022-09-11T05:58:53.312Z,15.04
2022-09-11T06:01:24.917Z,15.02
2022-09-11T06:03:52.862Z,15.04
2022-09-11T06:06:22.923Z,15.17
2022-09-11T06:08:51.749Z,15.14
2022-09-11T06:11:20.764Z,15.39
2022-09-11T06:13:49.202Z,15.49
2022-09-11T06:16:23.136Z,15.34
2022-09-11T06:18:53.035Z,15.49
2022-09-11T06:21:24.260Z,15.50
2022-09-11T06:23:53.162Z,15.40
2022-09-11T06:26:26.549Z,15.23
2022-09-11T06:28:54.281Z,15.43
2022-09-11T06:31:25.766Z,15.36
2022-09-11T06:33:56.074Z,15.48
2022-09-11T06:36:32.561Z,15.54
2022-09-11T06:38:59.636Z,15.67
2022-09-11T06:41:28.170Z,15.65
2022-09-11T06:43:55.295Z,15.70
2022-09-11T06:46:24.977Z,15.81
2022-09-11T06:48:53.774Z,15.68
2022-09-11T06:51:23.182Z,15.74
2022-09-11T06:53:58.095Z,15.87
2022-09-11T06:56:25.736Z,15.83
2022-09-11T06:58:52.885Z,15.80
2022-09-11T07:01:22.239Z,15.85
2022-09-11T07:03:53.679Z,15.69
2022-09-11T07:06:27.615Z,16.03
2022-09-11T07:09:01.558Z,16.03
2022-09-11T07:11:32.364Z,16.03
2022-09-11T07:14:05.813Z,16.15
2022-09-11T07:16:33.782Z,16.26
2022-09-11T07:19:01.377Z,16.45
2022-09-11T07:21:28.822Z,16.57
2022-09-11T07:24:00.024Z,16.73
2022-09-11T07:26:29.487Z,16.84
2022-09-11T07:28:58.305Z,16.76
2022-09-11T07:31:30.281Z,16.79
2022-09-11T07:33:57.593Z,16.97
2022-09-11T07:36:28.731Z,16.88
2022-09-11T07:38:56.422Z,16.93
2022-09-11T07:41:27.931Z,17.14
2022-09-11T07:44:00.203Z,17.07
2022-09-11T07:46:29.858Z,17.09
2022-09-11T07:48:57.271Z,16.94
2022-09-11T07:51:25.666Z,17.49
2022-09-11T07:53:54.304Z,17.60
2022-09-11T07:56:25.607Z,17.46
2022-09-11T07:58:55.105Z,17.47
2022-09-11T08:01:33.213Z,17.32
2022-09-11T08:04:07.270Z,17.29
2022-09-11T08:06:37.472Z,17.43
2022-09-11T08:09:14.698Z,17.87
2022-09-11T08:11:48.815Z,17.62
2022-09-11T08:14:17.601Z,17.61
2022-09-11T08:16:45.272Z,17.67
2022-09-11T08:19:19.571Z,17.63
2022-09-11T08:21:47.761Z,18.10
2022-09-11T08:24:17.109Z,17.99
2022-09-11T08:26:48.723Z,18.01
2022-09-11T08:29:16.309Z,17.97
2022-09-11T08:31:43.837Z,18.13
2022-09-11T08:34:11.118Z,17.74
2022-09-11T08:36:38.649Z,17.76
2022-09-11T08:39:05.769Z,17.69
2022-09-11T08:41:53.637Z,17.91
2022-09-11T08:44:30.984Z,17.81
2022-09-11T08:47:16.505Z,18.26
2022-09-11T08:49:55.186Z,18.35
2022-09-11T08:52:22.303Z,18.11
2022-09-11T08:54:50.543Z,18.35
2022-09-11T08:57:48.859Z,18.30
2022-09-11T09:00:32.046Z,18.51
2022-09-11T09:03:41.985Z,18.48
2022-09-11T09:07:01.456Z,18.28
2022-09-11T09:10:07.724Z,18.25
2022-09-11T09:13:08.458Z,18.31
2022-09-11T09:16:05.146Z,18.22
2022-09-11T09:18:48.814Z,18.31
2022-09-11T09:21:38.545Z,18.80
2022-09-11T09:24:21.185Z,19.08
2022-09-11T09:26:53.356Z,18.79
2022-09-11T09:29:36.036Z,18.71
2022-09-11T09:32:32.328Z,18.70
2022-09-11T09:35:10.817Z,18.67
2022-09-11T09:37:41.702Z,18.52
2022-09-11T09:40:10.917Z,18.76
2022-09-11T09:43:01.962Z,19.01
2022-09-11T09:45:43.754Z,18.94
2022-09-11T09:48:12.153Z,19.00
2022-09-11T09:50:43.900Z,19.25
2022-09-11T09:53:48.462Z,19.13
2022-09-11T09:56:19.228Z,19.51
2022-09-11T09:59:03.021Z,19.40
2022-09-11T10:01:48.287Z,19.32
2022-09-11T10:04:27.996Z,19.42
2022-09-11T10:07:11.339Z,19.35
2022-09-11T10:10:03.585Z,19.41
2022-09-11T10:12:34.781Z,19.87
2022-09-11T10:15:03.935Z,19.29
2022-09-11T10:17:33.329Z,19.68
2022-09-11T10:20:18.558Z,19.34
2022-09-11T10:22:46.354Z,19.19
2022-09-11T10:25:27.842Z,18.92
2022-09-11T10:28:17.319Z,18.82
2022-09-11T10:30:59.250Z,18.87
2022-09-11T10:33:38.383Z,18.31
2022-09-11T10:36:09.933Z,18.62
2022-09-11T10:38:48.126Z,18.60
2022-09-11T10:41:22.642Z,18.78
2022-09-11T10:44:12.003Z,18.89
2022-09-11T10:46:41.953Z,18.96
2022-09-11T10:49:23.279Z,18.54
2022-09-11T10:52:16.431Z,19.10
2022-09-11T10:55:15.732Z,19.56
2022-09-11T10:57:52.559Z,19.80
2022-09-11T11:00:30.094Z,20.19
2022-09-11T11:03:06.237Z,20.29
2022-09-11T11:05:54.979Z,19.81
2022-09-11T11:09:01.890Z,19.89
2022-09-11T11:12:09.754Z,20.53
2022-09-11T11:15:53.354Z,20.85
2022-09-11T11:18:50.138Z,21.59
2022-09-11T11:22:08.882Z,21.17
2022-09-11T11:25:03.273Z,21.92
2022-09-11T11:28:11.755Z,22.11
2022-09-11T11:30:51.436Z,22.98
2022-09-11T11:33:42.462Z,23.32
2022-09-11T11:36:40.862Z,22.82
2022-09-11T11:39:50.143Z,23.09
2022-09-11T11:42:31.226Z,23.27
2022-09-11T11:45:21.646Z,22.06
2022-09-11T11:47:51.334Z,21.74
2022-09-11T11:50:45.605Z,22.89
2022-09-11T11:53:19.732Z,23.43
2022-09-11T11:56:40.721Z,23.15
2022-09-11T11:59:20.432Z,22.56
2022-09-11T12:02:09.662Z,22.00
2022-09-11T12:04:55.708Z,21.41
2022-09-11T12:07:27.575Z,21.52
2022-09-11T12:09:57.432Z,22.02
2022-09-11T12:12:29.430Z,21.97
2022-09-11T12:15:10.239Z,21.96
2022-09-11T12:17:39.908Z,21.76
2022-09-11T12:20:43.482Z,21.45
2022-09-11T12:23:54.862Z,21.59
2022-09-11T12:26:27.469Z,21.73
2022-09-11T12:29:13.054Z,21.09
2022-09-11T12:31:51.749Z,21.62
2022-09-11T12:34:41.593Z,21.29
2022-09-11T12:37:25.214Z,21.40
2022-09-11T12:40:05.747Z,21.35
2022-09-11T12:42:32.645Z,21.19
2022-09-11T12:45:00.086Z,21.22
2022-09-11T12:47:39.687Z,21.31
2022-09-11T12:50:12.197Z,21.92
2022-09-11T12:52:45.246Z,21.28
2022-09-11T12:55:50.899Z,21.56
2022-09-11T12:58:18.832Z,21.93
2022-09-11T13:01:11.040Z,21.53
2022-09-11T13:03:49.892Z,21.57
2022-09-11T13:06:17.404Z,21.22
2022-09-11T13:09:01.291Z,21.29
2022-09-11T13:11:49.143Z,21.32
2022-09-11T13:14:47.666Z,21.85
2022-09-11T13:17:30.189Z,23.09
2022-09-11T13:20:21.902Z,24.05
2022-09-11T13:22:56.087Z,24.14
2022-09-11T13:25:27.907Z,23.61
2022-09-11T13:28:01.169Z,23.82
2022-09-11T13:30:28.329Z,23.82
2022-09-11T13:33:11.253Z,23.25
2022-09-11T13:35:43.673Z,22.75
2022-09-11T13:38:23.423Z,22.73
2022-09-11T13:41:08.128Z,23.05
2022-09-11T13:43:44.552Z,22.57
2022-09-11T13:46:32.330Z,23.41
2022-09-11T13:49:07.948Z,22.70
2022-09-11T13:51:39.231Z,22.17
2022-09-11T13:54:29.639Z,21.83
2022-09-11T13:56:56.354Z,21.34
2022-09-11T13:59:39.778Z,21.28
2022-09-11T14:02:24.122Z,20.64
2022-09-11T14:04:53.973Z,20.68
2022-09-11T14:07:26.463Z,20.57
2022-09-11T14:10:43.430Z,20.45
2022-09-11T14:13:35.512Z,20.53
2022-09-11T14:16:33.405Z,20.49
2022-09-11T14:19:14.782Z,19.99
2022-09-11T14:21:46.496Z,19.99
2022-09-11T14:27:02.414Z,20.11
2022-09-11T14:29:36.360Z,20.18
2022-09-11T14:32:37.210Z,21.19
2022-09-11T14:35:08.521Z,21.91
2022-09-11T14:37:45.701Z,21.56
2022-09-11T14:40:19.369Z,21.30
2022-09-11T14:42:47.243Z,21.03
2022-09-11T14:45:25.991Z,20.61
2022-09-11T14:47:53.515Z,20.13
2022-09-11T14:50:21.170Z,19.91
2022-09-11T14:52:48.120Z,19.63
2022-09-11T14:55:19.127Z,19.81
2022-09-11T14:57:46.704Z,19.90
2022-09-11T15:00:19.206Z,19.24
2022-09-11T15:02:47.081Z,19.67
2022-09-11T15:05:22.888Z,19.33
2022-09-11T15:07:50.060Z,19.42
2022-09-11T15:10:17.008Z,19.31
2022-09-11T15:12:44.669Z,19.35
2022-09-11T15:15:11.816Z,19.12
2022-09-11T15:17:39.957Z,19.37
2022-09-11T15:20:10.085Z,19.36
2022-09-11T15:22:38.362Z,19.76
2022-09-11T15:25:06.630Z,19.56
2022-09-11T15:27:34.338Z,19.68
2022-09-11T15:30:01.350Z,19.75
2022-09-11T15:32:28.470Z,19.73
2022-09-11T15:34:55.531Z,19.92
2022-09-11T15:37:23.629Z,19.57
2022-09-11T15:39:51.116Z,19.50
2022-09-11T15:42:19.268Z,19.78
2022-09-11T15:44:46.288Z,19.50
2022-09-11T15:47:13.964Z,19.75
2022-09-11T15:49:44.414Z,19.87
2022-09-11T15:52:12.482Z,20.00
2022-09-11T15:54:39.530Z,20.02
2022-09-11T15:57:07.585Z,19.95
2022-09-11T15:59:34.782Z,19.86
2022-09-11T16:02:01.856Z,19.68
2022-09-11T16:04:32.117Z,19.68
2022-09-11T16:06:59.661Z,19.57
2022-09-11T16:09:30.415Z,19.52
2022-09-11T16:12:00.201Z,19.39
2022-09-11T16:14:34.411Z,19.18
2022-09-11T16:17:05.411Z,19.29
2022-09-11T16:19:33.264Z,19.40
2022-09-11T16:22:04.214Z,18.90
2022-09-11T16:24:37.677Z,18.01
2022-09-11T16:27:09.849Z,18.40
2022-09-11T16:30:15.909Z,18.00
2022-09-11T16:32:31.872Z,18.26
2022-09-11T16:34:59.773Z,18.03
2022-09-11T16:37:28.290Z,18.30
2022-09-11T16:39:55.589Z,18.07
2022-09-11T16:42:22.674Z,18.35
2022-09-11T16:44:50.224Z,18.10
2022-09-11T16:47:18.175Z,17.88
2022-09-11T16:50:05.809Z,17.84
2022-09-11T16:52:32.672Z,17.84
2022-09-11T16:54:59.925Z,17.80
2022-09-11T16:57:29.977Z,17.89
2022-09-11T16:59:57.242Z,17.81
2022-09-11T17:02:24.230Z,17.81
2022-09-11T17:04:51.290Z,17.74
2022-09-11T17:07:18.755Z,17.55
2022-09-11T17:09:48.737Z,17.40
2022-09-11T17:12:17.764Z,17.47
2022-09-11T17:14:44.743Z,17.69
2022-09-11T17:17:11.777Z,17.74
2022-09-11T17:19:38.989Z,17.87
2022-09-11T17:22:06.592Z,17.82
2022-09-11T17:24:33.793Z,17.43
2022-09-11T17:27:03.575Z,17.46
2022-09-11T17:29:30.561Z,17.74
2022-09-11T17:32:16.755Z,17.75
2022-09-11T17:34:44.578Z,17.69
2022-09-11T17:37:11.541Z,17.17
2022-09-11T17:39:38.685Z,17.30
2022-09-11T17:42:11.017Z,17.15
2022-09-11T17:44:41.237Z,17.39
2022-09-11T17:47:08.232Z,17.61
2022-09-11T17:49:35.177Z,17.66
2022-09-11T17:52:02.481Z,17.71
2022-09-11T17:54:29.506Z,17.72
2022-09-11T17:56:58.026Z,17.57
2022-09-11T17:59:25.095Z,17.67
2022-09-11T18:01:52.179Z,17.69
2022-09-11T18:04:19.173Z,17.69
2022-09-11T18:06:46.670Z,17.54
2022-09-11T18:09:19.568Z,17.59
2022-09-11T18:11:51.126Z,17.60
2022-09-11T18:14:19.516Z,17.57
2022-09-11T18:16:47.813Z,17.37
2022-09-11T18:19:20.107Z,17.31
2022-09-11T18:21:50.348Z,16.99
2022-09-11T18:24:20.085Z,17.00
2022-09-11T18:26:57.207Z,17.08
2022-09-11T18:29:27.073Z,17.08
2022-09-11T18:31:54.620Z,17.13
2022-09-11T18:34:27.567Z,17.04
2022-09-11T18:36:54.704Z,17.06
2022-09-11T18:39:22.334Z,16.91
2022-09-11T18:41:52.462Z,16.84
2022-09-11T18:44:22.562Z,16.77
2022-09-11T18:46:54.446Z,16.78
2022-09-11T18:49:22.530Z,16.79
2022-09-11T18:51:49.666Z,16.89
2022-09-11T18:54:23.161Z,16.87
2022-09-11T18:56:51.022Z,16.95
2022-09-11T18:59:19.338Z,16.69
2022-09-11T19:01:46.534Z,16.65
2022-09-11T19:04:14.619Z,16.65
2022-09-11T19:06:41.662Z,16.65
2022-09-11T19:09:12.608Z,16.49
2022-09-11T19:11:40.785Z,16.39
2022-09-11T19:14:11.188Z,16.48
2022-09-11T19:16:39.468Z,16.27
2022-09-11T19:19:07.997Z,16.30
2022-09-11T19:21:36.288Z,16.30
2022-09-11T19:24:03.462Z,16.35
2022-09-11T19:26:38.863Z,16.32
2022-09-11T19:29:12.484Z,16.20
2022-09-11T19:31:40.412Z,16.28
2022-09-11T19:34:11.805Z,16.26
2022-09-11T19:36:41.046Z,16.28
2022-09-11T19:39:10.344Z,16.22
2022-09-11T19:41:39.789Z,16.17
2022-09-11T19:44:12.261Z,16.23
2022-09-11T19:46:40.943Z,16.29
2022-09-11T19:49:09.230Z,16.18
2022-09-11T19:51:44.852Z,16.10
2022-09-11T19:54:14.285Z,16.12
2022-09-11T19:56:42.430Z,16.12
2022-09-11T19:59:09.835Z,16.17
2022-09-11T20:01:37.458Z,16.06
2022-09-11T20:04:05.440Z,16.05
2022-09-11T20:06:35.487Z,16.02
2022-09-11T20:11:51.731Z,16.00
2022-09-11T20:14:18.779Z,16.01
2022-09-11T20:16:45.834Z,15.94
2022-09-11T20:19:14.728Z,15.84
2022-09-11T20:21:41.767Z,15.82
2022-09-11T20:24:09.201Z,15.74
2022-09-11T20:26:36.472Z,15.28
2022-09-11T20:29:13.711Z,15.45
2022-09-11T20:31:47.863Z,15.34
2022-09-11T20:34:18.166Z,15.41
2022-09-11T20:36:45.606Z,15.34
2022-09-11T20:39:14.103Z,15.39
2022-09-11T20:41:41.158Z,15.46
2022-09-11T20:44:08.294Z,15.32
2022-09-11T20:46:35.413Z,15.35
2022-09-11T20:49:03.978Z,15.26
2022-09-11T20:51:32.099Z,15.26
2022-09-11T20:54:00.483Z,15.25
2022-09-11T20:56:28.282Z,15.31
2022-09-11T20:58:55.729Z,15.13
2022-09-11T21:01:34.251Z,15.02
2022-09-11T21:04:04.462Z,14.88
2022-09-11T21:06:34.826Z,14.86
2022-09-11T21:09:10.923Z,14.84
2022-09-11T21:11:40.029Z,14.97
2022-09-11T21:14:07.490Z,14.92
2022-09-11T21:16:34.624Z,15.04
2022-09-11T21:19:03.253Z,15.03
2022-09-11T21:21:32.588Z,15.04
2022-09-11T21:24:04.043Z,15.03
2022-09-11T21:26:33.242Z,14.98
2022-09-11T21:29:05.707Z,14.96
2022-09-11T21:31:34.090Z,14.87
2022-09-11T21:34:02.154Z,14.90
2022-09-11T21:36:29.399Z,14.85
2022-09-11T21:38:56.393Z,14.82
2022-09-11T21:41:23.339Z,14.90
2022-09-11T21:43:50.282Z,14.90
2022-09-11T21:46:17.636Z,14.61
2022-09-11T21:48:44.675Z,14.40
2022-09-11T21:51:19.908Z,14.64
2022-09-11T21:53:49.735Z,14.77
2022-09-11T21:56:29.374Z,14.70
2022-09-11T21:58:57.285Z,14.57
2022-09-11T22:01:27.006Z,14.57
2022-09-11T22:03:54.818Z,14.51
2022-09-11T22:06:24.379Z,14.56
2022-09-11T22:08:53.330Z,14.57
2022-09-11T22:11:21.004Z,14.40
2022-09-11T22:13:48.036Z,14.41
2022-09-11T22:16:19.044Z,14.39
2022-09-11T22:18:53.299Z,14.43
2022-09-11T22:21:20.318Z,14.32
2022-09-11T22:23:47.362Z,14.21
2022-09-11T22:26:21.048Z,14.21
2022-09-11T22:28:48.296Z,14.31
2022-09-11T22:31:24.369Z,14.34
2022-09-11T22:33:53.657Z,14.34
2022-09-11T22:36:27.822Z,14.25
2022-09-11T22:38:55.735Z,14.23
2022-09-11T22:41:23.482Z,14.11
2022-09-11T22:43:50.640Z,14.26
2022-09-11T22:46:20.643Z,14.25
2022-09-11T22:48:48.538Z,14.34
2022-09-11T22:51:16.586Z,14.35
2022-09-11T22:53:43.849Z,14.45
2022-09-11T22:56:11.356Z,14.46
2022-09-11T22:58:38.572Z,14.43
2022-09-11T23:01:09.771Z,14.48
2022-09-11T23:03:37.187Z,14.44
2022-09-11T23:06:23.545Z,14.38
2022-09-11T23:08:50.736Z,14.32
2022-09-11T23:11:19.944Z,14.32
2022-09-11T23:13:48.544Z,14.21
2022-09-11T23:16:22.826Z,14.17
2022-09-11T23:18:59.693Z,14.10
2022-09-11T23:21:28.346Z,14.14
2022-09-11T23:23:58.062Z,14.14
2022-09-11T23:26:27.947Z,14.08
2022-09-11T23:28:55.754Z,14.05
2022-09-11T23:31:27.814Z,13.98
2022-09-11T23:33:59.092Z,13.87
2022-09-11T23:36:28.548Z,13.58
2022-09-11T23:38:56.101Z,13.33
2022-09-11T23:41:23.877Z,13.05
2022-09-11T23:43:51.307Z,12.98
2022-09-11T23:46:19.074Z,12.96
2022-09-11T23:48:46.649Z,13.14
2022-09-11T23:51:15.530Z,13.40
2022-09-11T23:53:45.213Z,13.54
2022-09-11T23:56:14.410Z,13.55
2022-09-11T23:58:42.126Z,13.59
